McGrew, Nebraska
Current Conditions -  °F | °C
As of 1:53 PM on Thursday 27 Nov 2014 (Local Time) from KBFF Reporting Station
Clear Clear  
Wind Chill: 39°   Ceiling: Unl
Heat Index: 39°   Visibility: 10mi
Dew Point: 31°   Wind: 3mph
Humidity: 73%   Direction: 130°SE
Pressure: 30"   Gusts: NA
Location:  41.75°N, 103.42°W
Report Text: KBFF 272053Z AUTO 13003KT 10SM CLR 04/M01 A3000 RMK AO2 SLP190 T00391006 56030
Loading
Personal Weather Stations






























Interactive Weather Map New forecast layout! Learn more

10-Day Weather Forecast

Advertisements
Track Severe Weather on mobile